sensor_id;sensor_type;location;lat;lon;timestamp;pressure;altitude;pressure_sealevel;temperature;humidity
73457;BME280;61691;53.072;6.582;2023-10-19T00:01:08;99604.56;;;8.58;78.47
73457;BME280;61691;53.072;6.582;2023-10-19T00:03:37;99631.81;;;8.76;78.38
73457;BME280;61691;53.072;6.582;2023-10-19T00:06:04;99595.81;;;8.57;79.07
73457;BME280;61691;53.072;6.582;2023-10-19T00:08:32;99585.03;;;8.50;79.45
73457;BME280;61691;53.072;6.582;2023-10-19T00:11:09;99622.38;;;8.73;79.42
73457;BME280;61691;53.072;6.582;2023-10-19T00:13:38;99609.47;;;8.70;79.51
73457;BME280;61691;53.072;6.582;2023-10-19T00:16:08;99594.59;;;8.69;79.96
73457;BME280;61691;53.072;6.582;2023-10-19T00:18:48;99591.97;;;8.69;79.94
73457;BME280;61691;53.072;6.582;2023-10-19T00:21:16;99560.81;;;8.55;79.84
73457;BME280;61691;53.072;6.582;2023-10-19T00:23:57;99579.03;;;8.66;80.14
73457;BME280;61691;53.072;6.582;2023-10-19T00:26:28;99578.22;;;8.66;80.26
73457;BME280;61691;53.072;6.582;2023-10-19T00:28:57;99567.50;;;8.67;80.30
73457;BME280;61691;53.072;6.582;2023-10-19T00:31:24;99571.19;;;8.74;79.69
73457;BME280;61691;53.072;6.582;2023-10-19T00:33:54;99549.63;;;8.61;80.41
73457;BME280;61691;53.072;6.582;2023-10-19T00:36:23;99569.91;;;8.78;80.34
73457;BME280;61691;53.072;6.582;2023-10-19T00:38:50;99564.22;;;8.73;80.84
73457;BME280;61691;53.072;6.582;2023-10-19T00:41:21;99552.63;;;8.66;80.90
73457;BME280;61691;53.072;6.582;2023-10-19T00:43:55;99555.66;;;8.71;81.15
73457;BME280;61691;53.072;6.582;2023-10-19T00:46:29;99546.84;;;8.63;81.49
73457;BME280;61691;53.072;6.582;2023-10-19T00:49:05;99521.47;;;8.52;81.73
73457;BME280;61691;53.072;6.582;2023-10-19T00:51:36;99523.84;;;8.55;81.50
73457;BME280;61691;53.072;6.582;2023-10-19T00:54:17;99539.34;;;8.58;82.68
73457;BME280;61691;53.072;6.582;2023-10-19T00:56:53;99510.25;;;8.50;82.00
73457;BME280;61691;53.072;6.582;2023-10-19T00:59:25;99517.94;;;8.61;81.90
73457;BME280;61691;53.072;6.582;2023-10-19T01:01:57;99512.34;;;8.64;82.04
73457;BME280;61691;53.072;6.582;2023-10-19T01:04:44;99486.13;;;8.45;81.83
73457;BME280;61691;53.072;6.582;2023-10-19T01:07:13;99501.41;;;8.59;82.67
73457;BME280;61691;53.072;6.582;2023-10-19T01:09:48;99506.06;;;8.65;82.37
73457;BME280;61691;53.072;6.582;2023-10-19T01:12:20;99506.00;;;8.57;82.77
73457;BME280;61691;53.072;6.582;2023-10-19T01:15:20;99513.16;;;8.65;82.97
73457;BME280;61691;53.072;6.582;2023-10-19T01:17:57;99506.69;;;8.59;82.88
73457;BME280;61691;53.072;6.582;2023-10-19T01:20:26;99522.91;;;8.64;82.78
73457;BME280;61691;53.072;6.582;2023-10-19T01:22:58;99495.41;;;8.49;84.46
73457;BME280;61691;53.072;6.582;2023-10-19T01:25:53;99505.19;;;8.57;84.13
73457;BME280;61691;53.072;6.582;2023-10-19T01:28:22;99477.72;;;8.49;84.15
73457;BME280;61691;53.072;6.582;2023-10-19T01:30:52;99484.84;;;8.49;84.20
73457;BME280;61691;53.072;6.582;2023-10-19T01:33:19;99483.38;;;8.54;83.79
73457;BME280;61691;53.072;6.582;2023-10-19T01:35:47;99479.69;;;8.47;84.05
73457;BME280;61691;53.072;6.582;2023-10-19T01:38:33;99497.09;;;8.58;84.65
73457;BME280;61691;53.072;6.582;2023-10-19T01:41:01;99491.50;;;8.61;83.82
73457;BME280;61691;53.072;6.582;2023-10-19T01:43:32;99466.03;;;8.52;83.79
73457;BME280;61691;53.072;6.582;2023-10-19T01:46:00;99484.56;;;8.60;84.32
73457;BME280;61691;53.072;6.582;2023-10-19T01:48:41;99476.28;;;8.55;84.46
73457;BME280;61691;53.072;6.582;2023-10-19T01:51:10;99480.59;;;8.56;85.07
73457;BME280;61691;53.072;6.582;2023-10-19T01:53:38;99478.53;;;8.50;85.52
73457;BME280;61691;53.072;6.582;2023-10-19T01:56:14;99444.78;;;8.36;85.02
73457;BME280;61691;53.072;6.582;2023-10-19T01:58:42;99480.25;;;8.59;85.10
73457;BME280;61691;53.072;6.582;2023-10-19T02:01:10;99456.59;;;8.49;85.13
73457;BME280;61691;53.072;6.582;2023-10-19T02:03:37;99461.63;;;8.61;84.85
73457;BME280;61691;53.072;6.582;2023-10-19T02:06:12;99464.81;;;8.64;85.21
73457;BME280;61691;53.072;6.582;2023-10-19T02:08:55;99458.69;;;8.64;84.91
73457;BME280;61691;53.072;6.582;2023-10-19T02:11:43;99456.53;;;8.67;85.20
73457;BME280;61691;53.072;6.582;2023-10-19T02:14:15;99433.69;;;8.58;84.98
73457;BME280;61691;53.072;6.582;2023-10-19T02:16:43;99444.69;;;8.71;84.85
73457;BME280;61691;53.072;6.582;2023-10-19T02:19:10;99441.38;;;8.69;85.18
73457;BME280;61691;53.072;6.582;2023-10-19T02:21:37;99442.34;;;8.68;85.46
73457;BME280;61691;53.072;6.582;2023-10-19T02:24:07;99438.88;;;8.68;85.42
73457;BME280;61691;53.072;6.582;2023-10-19T02:26:35;99433.09;;;8.64;86.27
73457;BME280;61691;53.072;6.582;2023-10-19T02:29:04;99426.47;;;8.60;86.62
73457;BME280;61691;53.072;6.582;2023-10-19T02:31:37;99370.84;;;8.36;85.63
73457;BME280;61691;53.072;6.582;2023-10-19T02:34:04;99416.78;;;8.69;86.41
73457;BME280;61691;53.072;6.582;2023-10-19T02:36:31;99416.91;;;8.67;86.46
73457;BME280;61691;53.072;6.582;2023-10-19T02:39:00;99411.84;;;8.74;85.88
73457;BME280;61691;53.072;6.582;2023-10-19T02:41:27;99397.56;;;8.59;86.02
73457;BME280;61691;53.072;6.582;2023-10-19T02:43:55;99403.03;;;8.65;85.91
73457;BME280;61691;53.072;6.582;2023-10-19T02:46:34;99403.72;;;8.67;86.49
73457;BME280;61691;53.072;6.582;2023-10-19T02:49:02;99381.50;;;8.52;86.30
73457;BME280;61691;53.072;6.582;2023-10-19T02:51:32;99390.16;;;8.62;86.57
73457;BME280;61691;53.072;6.582;2023-10-19T02:53:59;99393.81;;;8.69;86.53
73457;BME280;61691;53.072;6.582;2023-10-19T02:56:29;99381.06;;;8.65;86.61
73457;BME280;61691;53.072;6.582;2023-10-19T02:58:58;99375.47;;;8.68;86.57
73457;BME280;61691;53.072;6.582;2023-10-19T03:01:29;99359.75;;;8.58;86.50
73457;BME280;61691;53.072;6.582;2023-10-19T03:03:58;99373.72;;;8.76;86.45
73457;BME280;61691;53.072;6.582;2023-10-19T03:06:30;99371.56;;;8.80;86.36
73457;BME280;61691;53.072;6.582;2023-10-19T03:09:00;99379.50;;;8.80;86.52
73457;BME280;61691;53.072;6.582;2023-10-19T03:11:45;99349.72;;;8.62;86.67
73457;BME280;61691;53.072;6.582;2023-10-19T03:14:12;99374.69;;;8.75;86.78
73457;BME280;61691;53.072;6.582;2023-10-19T03:16:40;99371.06;;;8.76;86.68
73457;BME280;61691;53.072;6.582;2023-10-19T03:19:09;99359.78;;;8.66;87.05
73457;BME280;61691;53.072;6.582;2023-10-19T03:21:36;99349.06;;;8.68;86.78
73457;BME280;61691;53.072;6.582;2023-10-19T03:24:16;99366.63;;;8.77;87.00
73457;BME280;61691;53.072;6.582;2023-10-19T03:26:54;99324.75;;;8.56;87.33
73457;BME280;61691;53.072;6.582;2023-10-19T03:29:25;99328.72;;;8.60;87.44
73457;BME280;61691;53.072;6.582;2023-10-19T03:31:58;99348.91;;;8.69;87.47
73457;BME280;61691;53.072;6.582;2023-10-19T03:34:28;99340.66;;;8.72;87.06
73457;BME280;61691;53.072;6.582;2023-10-19T03:37:01;99340.66;;;8.72;88.23
73457;BME280;61691;53.072;6.582;2023-10-19T03:39:33;99333.75;;;8.71;87.86
73457;BME280;61691;53.072;6.582;2023-10-19T03:42:05;99331.09;;;8.71;88.00
73457;BME280;61691;53.072;6.582;2023-10-19T03:44:34;99338.88;;;8.81;87.73
73457;BME280;61691;53.072;6.582;2023-10-19T03:47:17;99331.13;;;8.79;87.46
73457;BME280;61691;53.072;6.582;2023-10-19T03:49:47;99343.84;;;8.84;87.92
73457;BME280;61691;53.072;6.582;2023-10-19T03:52:15;99344.34;;;8.87;87.59
73457;BME280;61691;53.072;6.582;2023-10-19T03:54:42;99302.16;;;8.62;87.68
73457;BME280;61691;53.072;6.582;2023-10-19T03:57:15;99325.66;;;8.81;87.97
73457;BME280;61691;53.072;6.582;2023-10-19T03:59:47;99305.31;;;8.73;87.53
73457;BME280;61691;53.072;6.582;2023-10-19T04:02:19;99334.13;;;8.84;88.03
73457;BME280;61691;53.072;6.582;2023-10-19T04:04:48;99313.94;;;8.75;87.90
73457;BME280;61691;53.072;6.582;2023-10-19T04:07:15;99316.59;;;8.83;88.32
73457;BME280;61691;53.072;6.582;2023-10-19T04:09:50;99330.31;;;8.95;87.95
73457;BME280;61691;53.072;6.582;2023-10-19T04:12:36;99320.25;;;8.90;87.78
73457;BME280;61691;53.072;6.582;2023-10-19T04:15:05;99326.41;;;8.99;88.09
73457;BME280;61691;53.072;6.582;2023-10-19T04:17:44;99330.53;;;9.02;88.15
73457;BME280;61691;53.072;6.582;2023-10-19T04:20:17;99324.25;;;9.03;87.76
73457;BME280;61691;53.072;6.582;2023-10-19T04:22:45;99336.00;;;9.08;87.57
73457;BME280;61691;53.072;6.582;2023-10-19T04:25:13;99320.94;;;9.01;88.38
73457;BME280;61691;53.072;6.582;2023-10-19T04:27:40;99290.47;;;8.80;88.05
73457;BME280;61691;53.072;6.582;2023-10-19T04:30:09;99317.13;;;9.03;88.17
73457;BME280;61691;53.072;6.582;2023-10-19T04:32:43;99323.09;;;9.05;88.18
73457;BME280;61691;53.072;6.582;2023-10-19T04:35:11;99328.53;;;9.04;87.91
73457;BME280;61691;53.072;6.582;2023-10-19T04:37:40;99311.03;;;8.95;88.69
73457;BME280;61691;53.072;6.582;2023-10-19T04:40:11;99314.00;;;9.00;88.61
73457;BME280;61691;53.072;6.582;2023-10-19T04:42:38;99294.50;;;8.92;88.43
73457;BME280;61691;53.072;6.582;2023-10-19T04:45:05;99317.63;;;8.99;88.33
73457;BME280;61691;53.072;6.582;2023-10-19T04:47:33;99282.75;;;8.79;88.26
73457;BME280;61691;53.072;6.582;2023-10-19T04:50:03;99316.31;;;9.03;88.62
73457;BME280;61691;53.072;6.582;2023-10-19T04:52:30;99298.97;;;8.92;88.30
73457;BME280;61691;53.072;6.582;2023-10-19T04:54:57;99329.88;;;9.00;89.22
73457;BME280;61691;53.072;6.582;2023-10-19T04:57:25;99319.75;;;8.95;89.39
73457;BME280;61691;53.072;6.582;2023-10-19T04:59:52;99328.06;;;9.00;89.16
73457;BME280;61691;53.072;6.582;2023-10-19T05:02:19;99324.06;;;8.96;89.00
73457;BME280;61691;53.072;6.582;2023-10-19T05:04:46;99311.69;;;8.97;88.99
73457;BME280;61691;53.072;6.582;2023-10-19T05:07:13;99310.53;;;8.99;89.47
73457;BME280;61691;53.072;6.582;2023-10-19T05:09:44;99308.56;;;9.01;89.20
73457;BME280;61691;53.072;6.582;2023-10-19T05:12:12;99311.84;;;9.03;88.92
73457;BME280;61691;53.072;6.582;2023-10-19T05:14:42;99323.28;;;9.12;88.61
73457;BME280;61691;53.072;6.582;2023-10-19T05:17:09;99291.53;;;9.04;88.98
73457;BME280;61691;53.072;6.582;2023-10-19T05:19:38;99317.66;;;9.15;88.89
73457;BME280;61691;53.072;6.582;2023-10-19T05:22:06;99306.75;;;9.10;89.00
73457;BME280;61691;53.072;6.582;2023-10-19T05:24:34;99327.25;;;9.16;88.66
73457;BME280;61691;53.072;6.582;2023-10-19T05:27:01;99321.63;;;9.19;88.47
73457;BME280;61691;53.072;6.582;2023-10-19T05:29:31;99294.84;;;8.98;89.16
73457;BME280;61691;53.072;6.582;2023-10-19T05:31:59;99325.25;;;9.18;88.92
73457;BME280;61691;53.072;6.582;2023-10-19T05:34:27;99313.19;;;9.07;88.99
73457;BME280;61691;53.072;6.582;2023-10-19T05:36:56;99325.78;;;9.21;88.76
73457;BME280;61691;53.072;6.582;2023-10-19T05:39:25;99303.75;;;9.05;88.83
73457;BME280;61691;53.072;6.582;2023-10-19T05:41:55;99327.25;;;9.16;89.14
73457;BME280;61691;53.072;6.582;2023-10-19T05:44:22;99316.50;;;9.09;89.04
73457;BME280;61691;53.072;6.582;2023-10-19T05:46:52;99320.16;;;9.16;88.88
73457;BME280;61691;53.072;6.582;2023-10-19T05:49:18;99319.97;;;9.18;88.76
73457;BME280;61691;53.072;6.582;2023-10-19T05:51:46;99301.28;;;9.03;88.81
73457;BME280;61691;53.072;6.582;2023-10-19T05:54:13;99325.25;;;9.18;88.90
73457;BME280;61691;53.072;6.582;2023-10-19T05:56:40;99320.78;;;9.10;89.13
73457;BME280;61691;53.072;6.582;2023-10-19T05:59:06;99319.97;;;9.10;89.50
73457;BME280;61691;53.072;6.582;2023-10-19T06:01:33;99323.28;;;9.12;89.09
73457;BME280;61691;53.072;6.582;2023-10-19T06:04:00;99329.91;;;9.16;89.12
73457;BME280;61691;53.072;6.582;2023-10-19T06:06:27;99302.44;;;9.01;89.51
73457;BME280;61691;53.072;6.582;2023-10-19T06:08:54;99309.41;;;9.02;88.99
73457;BME280;61691;53.072;6.582;2023-10-19T06:11:21;99330.75;;;9.16;89.18
73457;BME280;61691;53.072;6.582;2023-10-19T06:13:48;99307.41;;;9.04;89.23
73457;BME280;61691;53.072;6.582;2023-10-19T06:16:15;99331.56;;;9.17;89.37
73457;BME280;61691;53.072;6.582;2023-10-19T06:18:43;99336.84;;;9.17;89.30
73457;BME280;61691;53.072;6.582;2023-10-19T06:21:10;99348.59;;;9.22;89.53
73457;BME280;61691;53.072;6.582;2023-10-19T06:23:39;99348.91;;;9.19;89.48
73457;BME280;61691;53.072;6.582;2023-10-19T06:26:12;99348.41;;;9.16;89.55
73457;BME280;61691;53.072;6.582;2023-10-19T06:28:39;99339.81;;;9.14;89.21
73457;BME280;61691;53.072;6.582;2023-10-19T06:31:08;99337.31;;;9.12;88.95
73457;BME280;61691;53.072;6.582;2023-10-19T06:33:35;99354.19;;;9.19;89.05
73457;BME280;61691;53.072;6.582;2023-10-19T06:36:03;99358.00;;;9.17;89.20
73457;BME280;61691;53.072;6.582;2023-10-19T06:38:30;99351.22;;;9.14;89.11
73457;BME280;61691;53.072;6.582;2023-10-19T06:40:59;99343.75;;;9.10;89.07
73457;BME280;61691;53.072;6.582;2023-10-19T06:43:26;99362.28;;;9.18;89.20
73457;BME280;61691;53.072;6.582;2023-10-19T06:45:59;99317.75;;;8.89;89.45
73457;BME280;61691;53.072;6.582;2023-10-19T06:48:27;99370.88;;;9.20;89.34
73457;BME280;61691;53.072;6.582;2023-10-19T06:50:56;99376.16;;;9.20;89.59
73457;BME280;61691;53.072;6.582;2023-10-19T06:53:22;99358.97;;;9.08;89.21
73457;BME280;61691;53.072;6.582;2023-10-19T06:55:49;99369.03;;;9.12;89.29
73457;BME280;61691;53.072;6.582;2023-10-19T06:58:16;99383.63;;;9.16;89.66
73457;BME280;61691;53.072;6.582;2023-10-19T07:00:46;99388.56;;;9.19;89.30
73457;BME280;61691;53.072;6.582;2023-10-19T07:03:23;99361.09;;;9.04;89.99
73457;BME280;61691;53.072;6.582;2023-10-19T07:05:51;99386.75;;;9.20;89.60
73457;BME280;61691;53.072;6.582;2023-10-19T07:08:19;99311.44;;;8.74;89.29
73457;BME280;61691;53.072;6.582;2023-10-19T07:10:48;99392.56;;;9.23;89.99
73457;BME280;61691;53.072;6.582;2023-10-19T07:13:16;99381.47;;;9.20;89.33
73457;BME280;61691;53.072;6.582;2023-10-19T07:15:48;99384.94;;;9.20;89.79
73457;BME280;61691;53.072;6.582;2023-10-19T07:18:18;99318.25;;;8.84;90.00
73457;BME280;61691;53.072;6.582;2023-10-19T07:20:45;99370.72;;;9.21;89.75
73457;BME280;61691;53.072;6.582;2023-10-19T07:23:15;99373.84;;;9.25;89.53
73457;BME280;61691;53.072;6.582;2023-10-19T07:25:47;99387.44;;;9.30;89.95
73457;BME280;61691;53.072;6.582;2023-10-19T07:28:15;99348.88;;;9.11;89.71
73457;BME280;61691;53.072;6.582;2023-10-19T07:30:43;99367.56;;;9.18;89.87
73457;BME280;61691;53.072;6.582;2023-10-19T07:33:11;99374.84;;;9.16;89.95
73457;BME280;61691;53.072;6.582;2023-10-19T07:35:45;99388.44;;;9.29;89.70
73457;BME280;61691;53.072;6.582;2023-10-19T07:38:14;99401.50;;;9.30;90.03
73457;BME280;61691;53.072;6.582;2023-10-19T07:40:42;99391.06;;;9.29;89.68
73457;BME280;61691;53.072;6.582;2023-10-19T07:43:10;99393.72;;;9.29;90.05
73457;BME280;61691;53.072;6.582;2023-10-19T07:45:37;99392.72;;;9.30;89.72
73457;BME280;61691;53.072;6.582;2023-10-19T07:48:05;99387.75;;;9.27;89.72
73457;BME280;61691;53.072;6.582;2023-10-19T07:50:38;99387.75;;;9.27;90.33
73457;BME280;61691;53.072;6.582;2023-10-19T07:53:07;99373.88;;;9.17;90.10
73457;BME280;61691;53.072;6.582;2023-10-19T07:55:36;99387.88;;;9.17;89.95
73457;BME280;61691;53.072;6.582;2023-10-19T07:58:04;99368.88;;;9.06;90.37
73457;BME280;61691;53.072;6.582;2023-10-19T08:00:33;99380.75;;;9.10;90.42
73457;BME280;61691;53.072;6.582;2023-10-19T08:03:03;99382.41;;;9.11;89.97
73457;BME280;61691;53.072;6.582;2023-10-19T08:05:32;99397.31;;;9.20;90.13
73457;BME280;61691;53.072;6.582;2023-10-19T08:08:01;99373.84;;;9.09;90.37
73457;BME280;61691;53.072;6.582;2023-10-19T08:10:30;99391.72;;;9.23;90.37
73457;BME280;61691;53.072;6.582;2023-10-19T08:12:57;99390.38;;;9.19;90.33
73457;BME280;61691;53.072;6.582;2023-10-19T08:15:27;99413.53;;;9.33;90.55
73457;BME280;61691;53.072;6.582;2023-10-19T08:17:55;99411.41;;;9.37;90.36
73457;BME280;61691;53.072;6.582;2023-10-19T08:20:22;99413.22;;;9.36;90.08
73457;BME280;61691;53.072;6.582;2023-10-19T08:22:51;99407.94;;;9.36;90.15
73457;BME280;61691;53.072;6.582;2023-10-19T08:25:18;99419.19;;;9.38;90.36
73457;BME280;61691;53.072;6.582;2023-10-19T08:27:45;99423.50;;;9.39;90.47
73457;BME280;61691;53.072;6.582;2023-10-19T08:30:17;99378.13;;;9.18;90.50
73457;BME280;61691;53.072;6.582;2023-10-19T08:32:52;99423.34;;;9.49;90.51
73457;BME280;61691;53.072;6.582;2023-10-19T08:35:20;99414.91;;;9.45;90.07
73457;BME280;61691;53.072;6.582;2023-10-19T08:37:55;99416.38;;;9.48;90.26
73457;BME280;61691;53.072;6.582;2023-10-19T08:40:26;99412.13;;;9.47;89.98
73457;BME280;61691;53.072;6.582;2023-10-19T08:42:54;99420.84;;;9.47;90.48
73457;BME280;61691;53.072;6.582;2023-10-19T08:45:22;99408.47;;;9.40;90.54
73457;BME280;61691;53.072;6.582;2023-10-19T08:47:58;99391.75;;;9.31;90.35
73457;BME280;61691;53.072;6.582;2023-10-19T08:50:27;99388.28;;;9.30;90.80
73457;BME280;61691;53.072;6.582;2023-10-19T08:52:57;99420.22;;;9.53;90.91
73457;BME280;61691;53.072;6.582;2023-10-19T08:55:24;99433.25;;;9.55;90.46
73457;BME280;61691;53.072;6.582;2023-10-19T08:58:11;99416.59;;;9.54;90.48
73457;BME280;61691;53.072;6.582;2023-10-19T09:00:48;99420.88;;;9.63;90.38
73457;BME280;61691;53.072;6.582;2023-10-19T09:03:16;99427.84;;;9.64;90.21
73457;BME280;61691;53.072;6.582;2023-10-19T09:05:46;99420.88;;;9.63;90.48
73457;BME280;61691;53.072;6.582;2023-10-19T09:08:15;99422.53;;;9.64;90.49
73457;BME280;61691;53.072;6.582;2023-10-19T09:10:44;99423.53;;;9.71;90.20
73457;BME280;61691;53.072;6.582;2023-10-19T09:13:14;99412.94;;;9.55;90.50
73457;BME280;61691;53.072;6.582;2023-10-19T09:15:47;99430.50;;;9.73;90.39
73457;BME280;61691;53.072;6.582;2023-10-19T09:18:20;99414.13;;;9.69;90.59
73457;BME280;61691;53.072;6.582;2023-10-19T09:20:52;99407.66;;;9.63;90.34
73457;BME280;61691;53.072;6.582;2023-10-19T09:23:23;99404.19;;;9.63;90.40
73457;BME280;61691;53.072;6.582;2023-10-19T09:25:52;99417.59;;;9.78;90.52
73457;BME280;61691;53.072;6.582;2023-10-19T09:28:20;99409.16;;;9.74;90.52
73457;BME280;61691;53.072;6.582;2023-10-19T09:30:48;99402.72;;;9.60;90.87
73457;BME280;61691;53.072;6.582;2023-10-19T09:33:17;99403.22;;;9.72;90.73
73457;BME280;61691;53.072;6.582;2023-10-19T09:35:46;99413.97;;;9.79;90.35
73457;BME280;61691;53.072;6.582;2023-10-19T09:38:20;99386.50;;;9.63;90.49
73457;BME280;61691;53.072;6.582;2023-10-19T09:40:53;99412.31;;;9.86;90.53
73457;BME280;61691;53.072;6.582;2023-10-19T09:43:43;99417.13;;;9.90;90.86
73457;BME280;61691;53.072;6.582;2023-10-19T09:46:12;99431.50;;;9.96;90.89
73457;BME280;61691;53.072;6.582;2023-10-19T09:48:49;99427.22;;;10.03;90.90
73457;BME280;61691;53.072;6.582;2023-10-19T09:51:18;99394.44;;;9.96;90.35
73457;BME280;61691;53.072;6.582;2023-10-19T09:54:02;99409.00;;;10.08;90.71
73457;BME280;61691;53.072;6.582;2023-10-19T09:56:41;99391.13;;;9.94;90.39
73457;BME280;61691;53.072;6.582;2023-10-19T09:59:28;99402.72;;;10.09;90.35
73457;BME280;61691;53.072;6.582;2023-10-19T10:02:12;99406.69;;;10.13;90.80
73457;BME280;61691;53.072;6.582;2023-10-19T10:04:42;99401.41;;;10.13;90.54
73457;BME280;61691;53.072;6.582;2023-10-19T10:07:13;99406.69;;;10.13;90.64
73457;BME280;61691;53.072;6.582;2023-10-19T10:09:48;99409.69;;;10.18;90.71
73457;BME280;61691;53.072;6.582;2023-10-19T10:12:33;99391.50;;;10.07;90.40
73457;BME280;61691;53.072;6.582;2023-10-19T10:15:05;99412.66;;;10.23;90.60
73457;BME280;61691;53.072;6.582;2023-10-19T10:17:39;99399.09;;;10.18;90.86
73457;BME280;61691;53.072;6.582;2023-10-19T10:22:44;99400.91;;;10.26;90.86
73457;BME280;61691;53.072;6.582;2023-10-19T10:25:25;99369.63;;;10.13;90.57
73457;BME280;61691;53.072;6.582;2023-10-19T10:27:55;99387.69;;;10.18;90.57
73457;BME280;61691;53.072;6.582;2023-10-19T10:30:22;99386.34;;;10.14;90.31
73457;BME280;61691;53.072;6.582;2023-10-19T10:32:50;99390.31;;;10.26;90.72
73457;BME280;61691;53.072;6.582;2023-10-19T10:38:09;99386.19;;;10.23;90.31
73457;BME280;61691;53.072;6.582;2023-10-19T10:43:12;99371.63;;;10.11;90.38
73457;BME280;61691;53.072;6.582;2023-10-19T10:45:39;99384.88;;;10.19;90.75
73457;BME280;61691;53.072;6.582;2023-10-19T10:50:40;99384.03;;;10.27;90.39
73457;BME280;61691;53.072;6.582;2023-10-19T10:53:11;99370.66;;;10.20;90.26
73457;BME280;61691;53.072;6.582;2023-10-19T10:55:38;99374.59;;;10.24;90.73
73457;BME280;61691;53.072;6.582;2023-10-19T10:58:06;99388.97;;;10.38;90.68
73457;BME280;61691;53.072;6.582;2023-10-19T11:00:33;99376.25;;;10.33;90.38
73457;BME280;61691;53.072;6.582;2023-10-19T11:03:07;99394.44;;;10.44;90.34
73457;BME280;61691;53.072;6.582;2023-10-19T11:05:34;99393.63;;;10.44;90.31
73457;BME280;61691;53.072;6.582;2023-10-19T11:10:31;99388.78;;;10.47;90.24
73457;BME280;61691;53.072;6.582;2023-10-19T11:13:06;99398.41;;;10.48;90.39
73457;BME280;61691;53.072;6.582;2023-10-19T11:15:34;99401.72;;;10.51;90.51
73457;BME280;61691;53.072;6.582;2023-10-19T11:18:01;99382.50;;;10.40;90.12
73457;BME280;61691;53.072;6.582;2023-10-19T11:20:28;99403.69;;;10.57;90.76
73457;BME280;61691;53.072;6.582;2023-10-19T11:22:56;99400.72;;;10.52;90.51
73457;BME280;61691;53.072;6.582;2023-10-19T11:25:28;99411.31;;;10.52;90.74
73457;BME280;61691;53.072;6.582;2023-10-19T11:27:57;99397.88;;;10.53;90.61
73457;BME280;61691;53.072;6.582;2023-10-19T11:30:24;99401.34;;;10.54;90.56
73457;BME280;61691;53.072;6.582;2023-10-19T11:32:52;99388.31;;;10.44;90.48
73457;BME280;61691;53.072;6.582;2023-10-19T11:35:30;99382.00;;;10.45;90.56
73457;BME280;61691;53.072;6.582;2023-10-19T11:37:59;99396.72;;;10.56;90.74
73457;BME280;61691;53.072;6.582;2023-10-19T11:40:27;99395.56;;;10.58;90.48
73457;BME280;61691;53.072;6.582;2023-10-19T11:42:55;99364.28;;;10.45;90.48
73457;BME280;61691;53.072;6.582;2023-10-19T11:45:27;99391.94;;;10.59;90.78
73457;BME280;61691;53.072;6.582;2023-10-19T11:47:55;99379.16;;;10.55;91.02
73457;BME280;61691;53.072;6.582;2023-10-19T11:50:23;99389.41;;;10.66;90.99
73457;BME280;61691;53.072;6.582;2023-10-19T11:52:51;99387.75;;;10.65;90.73
73457;BME280;61691;53.072;6.582;2023-10-19T11:55:19;99321.31;;;10.27;90.25
73457;BME280;61691;53.072;6.582;2023-10-19T11:57:47;99372.72;;;10.57;90.49
73457;BME280;61691;53.072;6.582;2023-10-19T12:00:14;99381.78;;;10.63;90.83
73457;BME280;61691;53.072;6.582;2023-10-19T12:02:49;99371.19;;;10.63;91.12
73457;BME280;61691;53.072;6.582;2023-10-19T12:05:16;99368.06;;;10.67;91.05
73457;BME280;61691;53.072;6.582;2023-10-19T12:07:43;99318.94;;;10.40;91.14
73457;BME280;61691;53.072;6.582;2023-10-19T12:10:12;99365.03;;;10.70;90.32
73457;BME280;61691;53.072;6.582;2023-10-19T12:12:39;99372.50;;;10.75;90.48
73457;BME280;61691;53.072;6.582;2023-10-19T12:15:26;99354.00;;;10.59;90.36
73457;BME280;61691;53.072;6.582;2023-10-19T12:17:52;99366.72;;;10.63;90.31
73457;BME280;61691;53.072;6.582;2023-10-19T12:20:21;99332.84;;;10.42;90.28
73457;BME280;61691;53.072;6.582;2023-10-19T12:22:51;99376.34;;;10.64;90.27
73457;BME280;61691;53.072;6.582;2023-10-19T12:25:21;99385.44;;;10.62;90.26
73457;BME280;61691;53.072;6.582;2023-10-19T12:28:08;99340.50;;;10.37;90.43
73457;BME280;61691;53.072;6.582;2023-10-19T12:30:41;99378.84;;;10.58;90.27
73457;BME280;61691;53.072;6.582;2023-10-19T12:33:10;99358.00;;;10.38;90.44
73457;BME280;61691;53.072;6.582;2023-10-19T12:35:41;99376.19;;;10.58;90.53
73457;BME280;61691;53.072;6.582;2023-10-19T12:38:12;99382.47;;;10.57;90.07
73457;BME280;61691;53.072;6.582;2023-10-19T12:40:49;99382.19;;;10.52;90.54
73457;BME280;61691;53.072;6.582;2023-10-19T12:43:18;99372.56;;;10.51;90.49
73457;BME280;61691;53.072;6.582;2023-10-19T12:45:51;99310.19;;;10.16;90.38
73457;BME280;61691;53.072;6.582;2023-10-19T12:48:22;99362.47;;;10.46;90.68
73457;BME280;61691;53.072;6.582;2023-10-19T12:50:52;99357.84;;;10.40;90.63
73457;BME280;61691;53.072;6.582;2023-10-19T12:53:18;99352.72;;;10.38;90.40
73457;BME280;61691;53.072;6.582;2023-10-19T12:55:47;99342.47;;;10.35;90.68
73457;BME280;61691;53.072;6.582;2023-10-19T12:58:14;99354.34;;;10.47;90.50
73457;BME280;61691;53.072;6.582;2023-10-19T13:00:45;99349.22;;;10.46;90.34
73457;BME280;61691;53.072;6.582;2023-10-19T13:03:15;99324.78;;;10.28;90.16
73457;BME280;61691;53.072;6.582;2023-10-19T13:05:45;99342.13;;;10.38;90.56
73457;BME280;61691;53.072;6.582;2023-10-19T13:08:13;99341.78;;;10.41;90.70
73457;BME280;61691;53.072;6.582;2023-10-19T13:10:41;99325.94;;;10.25;90.53
73457;BME280;61691;53.072;6.582;2023-10-19T13:13:11;99340.16;;;10.32;90.43
73457;BME280;61691;53.072;6.582;2023-10-19T13:15:40;99329.25;;;10.27;90.63
73457;BME280;61691;53.072;6.582;2023-10-19T13:18:09;99319.16;;;10.06;90.88
73457;BME280;61691;53.072;6.582;2023-10-19T13:20:37;99307.09;;;10.04;90.72
73457;BME280;61691;53.072;6.582;2023-10-19T13:23:06;99349.09;;;10.23;90.90
73457;BME280;61691;53.072;6.582;2023-10-19T13:25:39;99306.94;;;9.97;90.63
73457;BME280;61691;53.072;6.582;2023-10-19T13:28:13;99355.44;;;10.22;90.78
73457;BME280;61691;53.072;6.582;2023-10-19T13:30:51;99335.69;;;10.08;90.98
73457;BME280;61691;53.072;6.582;2023-10-19T13:33:20;99350.09;;;10.14;90.88
73457;BME280;61691;53.072;6.582;2023-10-19T13:35:48;99329.28;;;9.95;90.89
73457;BME280;61691;53.072;6.582;2023-10-19T13:38:16;99344.97;;;10.13;91.33